$GPRMC,000000.000,V,5205.207,N,01638.639,E,0.00,0.00,010070,,*15 $GPGGA,000000.000,5205.207,N,01638.639,E,0,00,0.0,0.000,M,0.0,M,,*6A $GPRMC,000000.000,V,5205.189,N,01638.620,E,0.00,0.00,010070,,*18 $GPGGA,000000.000,5205.189,N,01638.620,E,0,00,0.0,0.000,M,0.0,M,,*67 $GPRMC,000000.000,V,5205.202,N,01638.579,E,0.00,0.00,010070,,*17 $GPGGA,000000.000,5205.202,N,01638.579,E,0,00,0.0,0.000,M,0.0,M,,*68 $GPRMC,000000.000,V,5205.209,N,01638.543,E,0.00,0.00,010070,,*15 $GPGGA,000000.000,5205.209,N,01638.543,E,0,00,0.0,0.000,M,0.0,M,,*6A $GPRMC,000000.000,V,5205.224,N,01638.554,E,0.00,0.00,010070,,*1C $GPGGA,000000.000,5205.224,N,01638.554,E,0,00,0.0,0.000,M,0.0,M,,*63 $GPRMC,000000.000,V,5205.240,N,01638.567,E,0.00,0.00,010070,,*1E $GPGGA,000000.000,5205.240,N,01638.567,E,0,00,0.0,0.000,M,0.0,M,,*61 $GPRMC,000000.000,V,5205.248,N,01638.580,E,0.00,0.00,010070,,*1F $GPGGA,000000.000,5205.248,N,01638.580,E,0,00,0.0,0.000,M,0.0,M,,*60 $GPRMC,000000.000,V,5205.258,N,01638.595,E,0.00,0.00,010070,,*1A $GPGGA,000000.000,5205.258,N,01638.595,E,0,00,0.0,0.000,M,0.0,M,,*65 $GPRMC,000000.000,V,5205.270,N,01638.613,E,0.00,0.00,010070,,*1D $GPGGA,000000.000,5205.270,N,01638.613,E,0,00,0.0,0.000,M,0.0,M,,*62 $GPRMC,000000.000,V,5205.280,N,01638.629,E,0.00,0.00,010070,,*1B $GPGGA,000000.000,5205.280,N,01638.629,E,0,00,0.0,0.000,M,0.0,M,,*64 $GPRMC,000000.000,V,5205.289,N,01638.644,E,0.00,0.00,010070,,*19 $GPGGA,000000.000,5205.289,N,01638.644,E,0,00,0.0,0.000,M,0.0,M,,*66 $GPRMC,000000.000,V,5205.296,N,01638.657,E,0.00,0.00,010070,,*15 $GPGGA,000000.000,5205.296,N,01638.657,E,0,00,0.0,0.000,M,0.0,M,,*6A $GPRMC,000000.000,V,5205.310,N,01638.654,E,0.00,0.00,010070,,*19 $GPGGA,000000.000,5205.310,N,01638.654,E,0,00,0.0,0.000,M,0.0,M,,*66 $GPRMC,000000.000,V,5205.322,N,01638.658,E,0.00,0.00,010070,,*14 $GPGGA,000000.000,5205.322,N,01638.658,E,0,00,0.0,0.000,M,0.0,M,,*6B $GPRMC,000000.000,V,5205.331,N,01638.660,E,0.00,0.00,010070,,*1D $GPGGA,000000.000,5205.331,N,01638.660,E,0,00,0.0,0.000,M,0.0,M,,*62 $GPRMC,000000.000,V,5205.342,N,01638.667,E,0.00,0.00,010070,,*1E $GPGGA,000000.000,5205.342,N,01638.667,E,0,00,0.0,0.000,M,0.0,M,,*61 $GPRMC,000000.000,V,5205.355,N,01638.660,E,0.00,0.00,010070,,*1F $GPGGA,000000.000,5205.355,N,01638.660,E,0,00,0.0,0.000,M,0.0,M,,*60 $GPRMC,000000.000,V,5205.366,N,01638.653,E,0.00,0.00,010070,,*1F $GPGGA,000000.000,5205.366,N,01638.653,E,0,00,0.0,0.000,M,0.0,M,,*60 $GPRMC,000000.000,V,5205.380,N,01638.648,E,0.00,0.00,010070,,*1D $GPGGA,000000.000,5205.380,N,01638.648,E,0,00,0.0,0.000,M,0.0,M,,*62 $GPRMC,000000.000,V,5205.391,N,01638.643,E,0.00,0.00,010070,,*16 $GPGGA,000000.000,5205.391,N,01638.643,E,0,00,0.0,0.000,M,0.0,M,,*69 $GPRMC,000000.000,V,5205.414,N,01638.628,E,0.00,0.00,010070,,*11 $GPGGA,000000.000,5205.414,N,01638.628,E,0,00,0.0,0.000,M,0.0,M,,*6E $GPRMC,000000.000,V,5205.442,N,01638.614,E,0.00,0.00,010070,,*1D $GPGGA,000000.000,5205.442,N,01638.614,E,0,00,0.0,0.000,M,0.0,M,,*62 $GPRMC,000000.000,V,5205.474,N,01638.595,E,0.00,0.00,010070,,*12 $GPGGA,000000.000,5205.474,N,01638.595,E,0,00,0.0,0.000,M,0.0,M,,*6D $GPRMC,000000.000,V,5205.494,N,01638.583,E,0.00,0.00,010070,,*1B $GPGGA,000000.000,5205.494,N,01638.583,E,0,00,0.0,0.000,M,0.0,M,,*64 $GPRMC,000000.000,V,5205.508,N,01638.574,E,0.00,0.00,010070,,*17 $GPGGA,000000.000,5205.508,N,01638.574,E,0,00,0.0,0.000,M,0.0,M,,*68 $GPRMC,000000.000,V,5205.535,N,01638.557,E,0.00,0.00,010070,,*18 $GPGGA,000000.000,5205.535,N,01638.557,E,0,00,0.0,0.000,M,0.0,M,,*67 $GPRMC,000000.000,V,5205.559,N,01638.540,E,0.00,0.00,010070,,*14 $GPGGA,000000.000,5205.559,N,01638.540,E,0,00,0.0,0.000,M,0.0,M,,*6B $GPRMC,000000.000,V,5205.590,N,01638.527,E,0.00,0.00,010070,,*10 $GPGGA,000000.000,5205.590,N,01638.527,E,0,00,0.0,0.000,M,0.0,M,,*6F $GPRMC,000000.000,V,5205.611,N,01638.516,E,0.00,0.00,010070,,*18 $GPGGA,000000.000,5205.611,N,01638.516,E,0,00,0.0,0.000,M,0.0,M,,*67 $GPRMC,000000.000,V,5205.633,N,01638.507,E,0.00,0.00,010070,,*18 $GPGGA,000000.000,5205.633,N,01638.507,E,0,00,0.0,0.000,M,0.0,M,,*67 $GPRMC,000000.000,V,5205.653,N,01638.486,E,0.00,0.00,010070,,*16 $GPGGA,000000.000,5205.653,N,01638.486,E,0,00,0.0,0.000,M,0.0,M,,*69 $GPRMC,000000.000,V,5205.675,N,01638.453,E,0.00,0.00,010070,,*1A $GPGGA,000000.000,5205.675,N,01638.453,E,0,00,0.0,0.000,M,0.0,M,,*65 $GPRMC,000000.000,V,5205.699,N,01638.426,E,0.00,0.00,010070,,*1A $GPGGA,000000.000,5205.699,N,01638.426,E,0,00,0.0,0.000,M,0.0,M,,*65 $GPRMC,000000.000,V,5205.726,N,01638.387,E,0.00,0.00,010070,,*13 $GPGGA,000000.000,5205.726,N,01638.387,E,0,00,0.0,0.000,M,0.0,M,,*6C $GPRMC,000000.000,V,5205.752,N,01638.341,E,0.00,0.00,010070,,*1A $GPGGA,000000.000,5205.752,N,01638.341,E,0,00,0.0,0.000,M,0.0,M,,*65 $GPRMC,000000.000,V,5205.775,N,01638.306,E,0.00,0.00,010070,,*1C $GPGGA,000000.000,5205.775,N,01638.306,E,0,00,0.0,0.000,M,0.0,M,,*63 $GPRMC,000000.000,V,5205.801,N,01638.276,E,0.00,0.00,010070,,*16 $GPGGA,000000.000,5205.801,N,01638.276,E,0,00,0.0,0.000,M,0.0,M,,*69 $GPRMC,000000.000,V,5205.825,N,01638.231,E,0.00,0.00,010070,,*13 $GPGGA,000000.000,5205.825,N,01638.231,E,0,00,0.0,0.000,M,0.0,M,,*6C $GPRMC,000000.000,V,5205.852,N,01638.189,E,0.00,0.00,010070,,*13 $GPGGA,000000.000,5205.852,N,01638.189,E,0,00,0.0,0.000,M,0.0,M,,*6C $GPRMC,000000.000,V,5205.876,N,01638.151,E,0.00,0.00,010070,,*10 $GPGGA,000000.000,5205.876,N,01638.151,E,0,00,0.0,0.000,M,0.0,M,,*6F $GPRMC,000000.000,V,5205.899,N,01638.117,E,0.00,0.00,010070,,*13 $GPGGA,000000.000,5205.899,N,01638.117,E,0,00,0.0,0.000,M,0.0,M,,*6C $GPRMC,000000.000,V,5205.922,N,01638.081,E,0.00,0.00,010070,,*1C $GPGGA,000000.000,5205.922,N,01638.081,E,0,00,0.0,0.000,M,0.0,M,,*63 $GPRMC,000000.000,V,5205.961,N,01638.018,E,0.00,0.00,010070,,*1B $GPGGA,000000.000,5205.961,N,01638.018,E,0,00,0.0,0.000,M,0.0,M,,*64 $GPRMC,000000.000,V,5205.990,N,01637.974,E,0.00,0.00,010070,,*19 $GPGGA,000000.000,5205.990,N,01637.974,E,0,00,0.0,0.000,M,0.0,M,,*66 $GPRMC,000000.000,V,5206.023,N,01637.923,E,0.00,0.00,010070,,*19 $GPGGA,000000.000,5206.023,N,01637.923,E,0,00,0.0,0.000,M,0.0,M,,*66 $GPRMC,000000.000,V,5206.042,N,01637.896,E,0.00,0.00,010070,,*11 $GPGGA,000000.000,5206.042,N,01637.896,E,0,00,0.0,0.000,M,0.0,M,,*6E $GPRMC,000000.000,V,5206.063,N,01637.856,E,0.00,0.00,010070,,*1E $GPGGA,000000.000,5206.063,N,01637.856,E,0,00,0.0,0.000,M,0.0,M,,*61 $GPRMC,000000.000,V,5206.078,N,01637.835,E,0.00,0.00,010070,,*11 $GPGGA,000000.000,5206.078,N,01637.835,E,0,00,0.0,0.000,M,0.0,M,,*6E $GPRMC,000000.000,V,5206.095,N,01637.815,E,0.00,0.00,010070,,*10 $GPGGA,000000.000,5206.095,N,01637.815,E,0,00,0.0,0.000,M,0.0,M,,*6F $GPRMC,000000.000,V,5206.127,N,01637.768,E,0.00,0.00,010070,,*1D $GPGGA,000000.000,5206.127,N,01637.768,E,0,00,0.0,0.000,M,0.0,M,,*62 $GPRMC,000000.000,V,5206.148,N,01637.726,E,0.00,0.00,010070,,*1E $GPGGA,000000.000,5206.148,N,01637.726,E,0,00,0.0,0.000,M,0.0,M,,*61 $GPRMC,000000.000,V,5206.172,N,01637.687,E,0.00,0.00,010070,,*1D $GPGGA,000000.000,5206.172,N,01637.687,E,0,00,0.0,0.000,M,0.0,M,,*62 $GPRMC,000000.000,V,5206.195,N,01637.649,E,0.00,0.00,010070,,*16 $GPGGA,000000.000,5206.195,N,01637.649,E,0,00,0.0,0.000,M,0.0,M,,*69 $GPRMC,000000.000,V,5206.226,N,01637.596,E,0.00,0.00,010070,,*1C $GPGGA,000000.000,5206.226,N,01637.596,E,0,00,0.0,0.000,M,0.0,M,,*63 $GPRMC,000000.000,V,5206.235,N,01637.582,E,0.00,0.00,010070,,*1B $GPGGA,000000.000,5206.235,N,01637.582,E,0,00,0.0,0.000,M,0.0,M,,*64